Time,TemperatureF,DewpointF,PressureIn,WindDirection,WindDirectionDegrees,WindSpeedMPH,WindSpeedGustMPH,Humidity,HourlyPrecipIn,Conditions,Clouds,dailyrainin,SoftwareType,DateUTC
2013-06-09 00:02:00,72.0,25.0,-100.00,SW,229,3.0,10.0,17,0.00,,,-99.99,,2013-06-09 07:02:00,
2013-06-09 00:12:00,72.0,25.0,-100.00,SW,229,3.0,10.0,17,0.00,,,-99.99,,2013-06-09 07:12:00,
2013-06-09 00:32:00,70.0,25.0,-100.00,WSW,242,3.0,8.0,18,0.00,,,0.00,,2013-06-09 07:32:00,
2013-06-09 00:42:00,70.0,25.0,-100.00,WSW,242,3.0,8.0,18,0.00,,,0.00,,2013-06-09 07:42:00,
2013-06-09 00:52:00,70.0,25.0,-100.00,WSW,242,3.0,8.0,18,0.00,,,0.00,,2013-06-09 07:52:00,
2013-06-09 01:02:00,70.0,25.0,-100.00,WSW,242,3.0,8.0,18,0.00,,,0.00,,2013-06-09 08:02:00,
2013-06-09 01:12:00,70.0,25.0,-100.00,WSW,242,3.0,8.0,18,0.00,,,0.00,,2013-06-09 08:12:00,
2013-06-09 01:32:00,63.0,24.0,-100.00,East,91,2.0,7.0,22,0.00,,,0.00,,2013-06-09 08:32:00,
2013-06-09 01:42:00,63.0,24.0,-100.00,East,91,2.0,7.0,22,0.00,,,0.00,,2013-06-09 08:42:00,
2013-06-09 01:53:00,63.0,24.0,-100.00,East,91,2.0,7.0,22,0.00,,,0.00,,2013-06-09 08:53:00,
2013-06-09 02:02:00,63.0,24.0,-100.00,East,91,2.0,7.0,22,0.00,,,0.00,,2013-06-09 09:02:00,
2013-06-09 02:12:00,63.0,24.0,-100.00,East,91,2.0,7.0,22,0.00,,,0.00,,2013-06-09 09:12:00,
2013-06-09 02:33:00,58.0,25.0,-100.00,ESE,116,2.0,4.0,28,0.00,,,-99.99,,2013-06-09 09:33:00,
2013-06-09 02:43:00,58.0,25.0,-100.00,ESE,116,2.0,4.0,28,0.00,,,-99.99,,2013-06-09 09:43:00,
2013-06-09 02:52:00,58.0,25.0,-100.00,ESE,116,2.0,4.0,28,0.00,,,-99.99,,2013-06-09 09:52:00,
2013-06-09 03:03:00,58.0,25.0,-100.00,ESE,116,2.0,4.0,28,0.00,,,-99.99,,2013-06-09 10:03:00,
2013-06-09 03:12:00,58.0,25.0,-100.00,ESE,116,2.0,4.0,28,0.00,,,-99.99,,2013-06-09 10:12:00,
2013-06-09 03:32:00,56.0,27.0,-100.00,SE,131,2.0,4.0,33,0.00,,,0.00,,2013-06-09 10:32:00,
2013-06-09 03:43:00,56.0,27.0,-100.00,SE,131,2.0,4.0,33,0.00,,,0.00,,2013-06-09 10:43:00,
2013-06-09 03:52:00,56.0,27.0,-100.00,SE,131,2.0,4.0,33,0.00,,,0.00,,2013-06-09 10:52:00,
2013-06-09 04:02:00,56.0,27.0,-100.00,SE,131,2.0,4.0,33,0.00,,,0.00,,2013-06-09 11:02:00,
2013-06-09 04:12:00,56.0,27.0,-100.00,SE,131,2.0,4.0,33,0.00,,,0.00,,2013-06-09 11:12:00,
2013-06-09 04:32:00,54.0,28.0,-100.00,ESE,122,2.0,5.0,37,0.00,,,0.00,,2013-06-09 11:32:00,
2013-06-09 04:42:00,54.0,28.0,-100.00,ESE,122,2.0,5.0,37,0.00,,,0.00,,2013-06-09 11:42:00,
2013-06-09 04:52:00,54.0,28.0,-100.00,ESE,122,2.0,5.0,37,0.00,,,0.00,,2013-06-09 11:52:00,
2013-06-09 05:02:00,54.0,28.0,-100.00,ESE,122,2.0,5.0,37,0.00,,,0.00,,2013-06-09 12:02:00,
2013-06-09 05:12:00,54.0,28.0,-100.00,ESE,122,2.0,5.0,37,0.00,,,0.00,,2013-06-09 12:12:00,
2013-06-09 05:32:00,54.0,30.0,-100.00,SE,132,2.0,4.0,40,0.00,,,0.00,,2013-06-09 12:32:00,
2013-06-09 05:42:00,54.0,30.0,-100.00,SE,132,2.0,4.0,40,0.00,,,0.00,,2013-06-09 12:42:00,
2013-06-09 05:52:00,54.0,30.0,-100.00,SE,132,2.0,4.0,40,0.00,,,0.00,,2013-06-09 12:52:00,
2013-06-09 06:02:00,54.0,30.0,-100.00,SE,132,2.0,4.0,40,0.00,,,0.00,,2013-06-09 13:02:00,
2013-06-09 06:12:00,54.0,30.0,-100.00,SE,132,2.0,4.0,40,0.00,,,0.00,,2013-06-09 13:12:00,
2013-06-09 06:42:00,57.0,35.0,-100.00,SE,136,3.0,5.0,44,0.00,,,0.00,,2013-06-09 13:42:00,
2013-06-09 06:52:00,57.0,35.0,-100.00,SE,136,3.0,5.0,44,0.00,,,0.00,,2013-06-09 13:52:00,
2013-06-09 07:02:00,57.0,35.0,-100.00,SE,136,3.0,5.0,44,0.00,,,0.00,,2013-06-09 14:02:00,
2013-06-09 07:12:00,57.0,35.0,-100.00,SE,136,3.0,5.0,44,0.00,,,0.00,,2013-06-09 14:12:00,
2013-06-09 07:32:00,75.0,34.0,-100.00,WSW,241,4.0,8.0,22,0.00,,,0.00,,2013-06-09 14:32:00,
2013-06-09 07:43:00,75.0,34.0,-100.00,WSW,241,4.0,8.0,22,0.00,,,0.00,,2013-06-09 14:43:00,
2013-06-09 07:52:00,75.0,34.0,-100.00,WSW,241,4.0,8.0,22,0.00,,,0.00,,2013-06-09 14:52:00,
2013-06-09 08:02:00,75.0,34.0,-100.00,WSW,241,4.0,8.0,22,0.00,,,0.00,,2013-06-09 15:02:00,
2013-06-09 08:33:00,78.0,31.0,-100.00,West,266,7.0,12.0,18,-99.99,,,0.00,,2013-06-09 15:33:00,
2013-06-09 08:43:00,78.0,31.0,-100.00,West,266,7.0,12.0,18,-99.99,,,0.00,,2013-06-09 15:43:00,
2013-06-09 08:53:00,78.0,31.0,-100.00,West,266,7.0,12.0,18,-99.99,,,0.00,,2013-06-09 15:53:00,
2013-06-09 09:03:00,78.0,31.0,-100.00,West,266,7.0,12.0,18,-99.99,,,0.00,,2013-06-09 16:03:00,
2013-06-09 09:13:00,78.0,31.0,-100.00,West,266,7.0,12.0,18,-99.99,,,0.00,,2013-06-09 16:13:00,
2013-06-09 09:33:00,81.0,31.0,-100.00,WNW,296,7.0,14.0,16,0.00,,,0.00,,2013-06-09 16:33:00,
2013-06-09 09:42:00,81.0,31.0,-100.00,WNW,296,7.0,14.0,16,0.00,,,0.00,,2013-06-09 16:42:00,
2013-06-09 09:53:00,81.0,31.0,-100.00,WNW,296,7.0,14.0,16,0.00,,,0.00,,2013-06-09 16:53:00,
2013-06-09 10:02:00,81.0,31.0,-100.00,WNW,296,7.0,14.0,16,0.00,,,0.00,,2013-06-09 17:02:00,
2013-06-09 10:12:00,81.0,31.0,-100.00,WNW,296,7.0,14.0,16,0.00,,,0.00,,2013-06-09 17:12:00,
2013-06-09 10:32:00,83.0,29.0,-100.00,WSW,245,5.0,14.0,14,0.00,,,0.00,,2013-06-09 17:32:00,
2013-06-09 10:42:00,83.0,29.0,-100.00,WSW,245,5.0,14.0,14,0.00,,,0.00,,2013-06-09 17:42:00,
2013-06-09 10:52:00,83.0,29.0,-100.00,WSW,245,5.0,14.0,14,0.00,,,0.00,,2013-06-09 17:52:00,
2013-06-09 11:02:00,83.0,29.0,-100.00,WSW,245,5.0,14.0,14,0.00,,,0.00,,2013-06-09 18:02:00,
2013-06-09 11:12:00,83.0,29.0,-100.00,WSW,245,5.0,14.0,14,0.00,,,0.00,,2013-06-09 18:12:00,
2013-06-09 11:33:00,85.0,29.0,-100.00,WNW,288,9.0,17.0,13,0.00,,,0.00,,2013-06-09 18:33:00,
2013-06-09 11:42:00,85.0,29.0,-100.00,WNW,288,9.0,17.0,13,0.00,,,0.00,,2013-06-09 18:42:00,
2013-06-09 11:52:00,85.0,29.0,-100.00,WNW,288,9.0,17.0,13,0.00,,,0.00,,2013-06-09 18:52:00,
2013-06-09 12:02:00,85.0,29.0,-100.00,WNW,288,9.0,17.0,13,0.00,,,0.00,,2013-06-09 19:02:00,
2013-06-09 12:12:00,85.0,29.0,-100.00,WNW,288,9.0,17.0,13,0.00,,,0.00,,2013-06-09 19:12:00,
2013-06-09 12:32:00,87.0,30.0,-100.00,WSW,252,8.0,14.0,13,0.00,,,0.00,,2013-06-09 19:32:00,
2013-06-09 12:43:00,87.0,30.0,-100.00,WSW,252,8.0,14.0,13,0.00,,,0.00,,2013-06-09 19:43:00,
2013-06-09 12:52:00,87.0,30.0,-100.00,WSW,252,8.0,14.0,13,0.00,,,0.00,,2013-06-09 19:52:00,
2013-06-09 13:02:00,87.0,30.0,-100.00,WSW,252,8.0,14.0,13,0.00,,,0.00,,2013-06-09 20:02:00,
2013-06-09 13:12:00,87.0,30.0,-100.00,WSW,252,8.0,14.0,13,0.00,,,0.00,,2013-06-09 20:12:00,
2013-06-09 13:32:00,88.0,29.0,-100.00,WNW,283,10.0,17.0,12,0.00,,,0.00,,2013-06-09 20:32:00,
2013-06-09 13:42:00,88.0,29.0,-100.00,WNW,283,10.0,17.0,12,0.00,,,0.00,,2013-06-09 20:42:00,
2013-06-09 13:52:00,88.0,29.0,-100.00,WNW,283,10.0,17.0,12,0.00,,,0.00,,2013-06-09 20:52:00,
2013-06-09 14:02:00,88.0,29.0,-100.00,WNW,283,10.0,17.0,12,0.00,,,0.00,,2013-06-09 21:02:00,
2013-06-09 14:12:00,88.0,29.0,-100.00,WNW,283,10.0,17.0,12,0.00,,,0.00,,2013-06-09 21:12:00,
2013-06-09 14:33:00,90.0,28.0,-100.00,West,265,6.0,20.0,11,0.00,,,-99.99,,2013-06-09 21:33:00,
2013-06-09 14:44:00,90.0,28.0,-100.00,West,265,6.0,20.0,11,0.00,,,-99.99,,2013-06-09 21:44:00,
2013-06-09 14:53:00,90.0,28.0,-100.00,West,265,6.0,20.0,11,0.00,,,-99.99,,2013-06-09 21:53:00,
2013-06-09 15:02:00,90.0,28.0,-100.00,West,265,6.0,20.0,11,0.00,,,-99.99,,2013-06-09 22:02:00,
2013-06-09 15:12:00,90.0,28.0,-100.00,West,265,6.0,20.0,11,0.00,,,-99.99,,2013-06-09 22:12:00,
2013-06-09 15:33:00,90.0,28.0,-100.00,WSW,237,8.0,18.0,11,0.00,,,-99.99,,2013-06-09 22:33:00,
2013-06-09 15:42:00,90.0,28.0,-100.00,WSW,237,8.0,18.0,11,0.00,,,-99.99,,2013-06-09 22:42:00,
2013-06-09 15:52:00,90.0,28.0,-100.00,WSW,237,8.0,18.0,11,0.00,,,-99.99,,2013-06-09 22:52:00,
2013-06-09 16:02:00,90.0,28.0,-100.00,WSW,237,8.0,18.0,11,0.00,,,-99.99,,2013-06-09 23:02:00,
2013-06-09 16:12:00,90.0,28.0,-100.00,WSW,237,8.0,18.0,11,0.00,,,-99.99,,2013-06-09 23:12:00,
2013-06-09 16:32:00,89.0,28.0,-100.00,West,259,9.0,22.0,11,0.00,,,0.00,,2013-06-09 23:32:00,
2013-06-09 16:43:00,89.0,28.0,-100.00,West,259,9.0,22.0,11,0.00,,,0.00,,2013-06-09 23:43:00,
2013-06-09 16:52:00,89.0,28.0,-100.00,West,259,9.0,22.0,11,0.00,,,0.00,,2013-06-09 23:52:00,
2013-06-09 17:02:00,89.0,28.0,-100.00,West,259,9.0,22.0,11,0.00,,,0.00,,2013-06-10 00:02:00,
2013-06-09 17:12:00,89.0,28.0,-100.00,West,259,9.0,22.0,11,0.00,,,0.00,,2013-06-10 00:12:00,
2013-06-09 17:42:00,88.0,27.0,-100.00,WSW,237,8.0,19.0,11,0.00,,,0.00,,2013-06-10 00:42:00,
2013-06-09 17:52:00,88.0,27.0,-100.00,WSW,237,8.0,19.0,11,0.00,,,0.00,,2013-06-10 00:52:00,
2013-06-09 18:02:00,88.0,27.0,-100.00,WSW,237,8.0,19.0,11,0.00,,,0.00,,2013-06-10 01:02:00,
2013-06-09 18:12:00,88.0,27.0,-100.00,WSW,237,8.0,19.0,11,0.00,,,0.00,,2013-06-10 01:12:00,
2013-06-09 18:32:00,85.0,22.0,-100.00,WSW,243,6.0,17.0,10,0.00,,,0.00,,2013-06-10 01:32:00,
2013-06-09 18:43:00,85.0,22.0,-100.00,WSW,243,6.0,17.0,10,0.00,,,0.00,,2013-06-10 01:43:00,
2013-06-09 18:52:00,85.0,22.0,-100.00,WSW,243,6.0,17.0,10,0.00,,,0.00,,2013-06-10 01:52:00,
2013-06-09 19:02:00,85.0,22.0,-100.00,WSW,243,6.0,17.0,10,0.00,,,0.00,,2013-06-10 02:02:00,
2013-06-09 19:12:00,85.0,22.0,-100.00,WSW,243,6.0,17.0,10,0.00,,,0.00,,2013-06-10 02:12:00,
2013-06-09 19:32:00,80.0,21.0,-100.00,WSW,239,6.0,17.0,11,0.00,,,0.00,,2013-06-10 02:32:00,
2013-06-09 19:42:00,80.0,21.0,-100.00,WSW,239,6.0,17.0,11,0.00,,,0.00,,2013-06-10 02:42:00,
2013-06-09 19:52:00,80.0,21.0,-100.00,WSW,239,6.0,17.0,11,0.00,,,0.00,,2013-06-10 02:52:00,
2013-06-09 20:02:00,80.0,21.0,-100.00,WSW,239,6.0,17.0,11,0.00,,,0.00,,2013-06-10 03:02:00,
2013-06-09 20:12:00,80.0,21.0,-100.00,WSW,239,6.0,17.0,11,0.00,,,0.00,,2013-06-10 03:12:00,
2013-06-09 20:33:00,74.0,20.0,-100.00,WSW,238,4.0,11.0,13,0.00,,,0.00,,2013-06-10 03:33:00,
2013-06-09 20:43:00,74.0,20.0,-100.00,WSW,238,4.0,11.0,13,0.00,,,0.00,,2013-06-10 03:43:00,
2013-06-09 20:53:00,74.0,20.0,-100.00,WSW,238,4.0,11.0,13,0.00,,,0.00,,2013-06-10 03:53:00,
2013-06-09 21:03:00,74.0,20.0,-100.00,WSW,238,4.0,11.0,13,0.00,,,0.00,,2013-06-10 04:03:00,
2013-06-09 21:12:00,74.0,20.0,-100.00,WSW,238,4.0,11.0,13,0.00,,,0.00,,2013-06-10 04:12:00,
2013-06-09 21:33:00,72.0,20.0,-100.00,WSW,254,4.0,10.0,14,0.00,,,0.00,,2013-06-10 04:33:00,
2013-06-09 21:42:00,72.0,20.0,-100.00,WSW,254,4.0,10.0,14,0.00,,,0.00,,2013-06-10 04:42:00,
2013-06-09 21:52:00,72.0,20.0,-100.00,WSW,254,4.0,10.0,14,0.00,,,0.00,,2013-06-10 04:52:00,
2013-06-09 22:02:00,72.0,20.0,-100.00,WSW,254,4.0,10.0,14,0.00,,,0.00,,2013-06-10 05:02:00,
2013-06-09 22:12:00,72.0,20.0,-100.00,WSW,254,4.0,10.0,14,0.00,,,0.00,,2013-06-10 05:12:00,
2013-06-09 22:32:00,71.0,21.0,-100.00,SW,223,4.0,10.0,15,0.00,,,0.00,,2013-06-10 05:32:00,
2013-06-09 22:42:00,71.0,21.0,-100.00,SW,223,4.0,10.0,15,0.00,,,0.00,,2013-06-10 05:42:00,
2013-06-09 22:52:00,71.0,21.0,-100.00,SW,223,4.0,10.0,15,0.00,,,0.00,,2013-06-10 05:52:00,
2013-06-09 23:02:00,71.0,21.0,-100.00,SW,223,4.0,10.0,15,0.00,,,0.00,,2013-06-10 06:02:00,
2013-06-09 23:12:00,71.0,21.0,-100.00,SW,223,4.0,10.0,15,0.00,,,0.00,,2013-06-10 06:12:00,
2013-06-09 23:32:00,67.0,18.0,-100.00,SSE,151,2.0,9.0,15,0.00,,,0.00,,2013-06-10 06:32:00,
2013-06-09 23:42:00,67.0,18.0,-100.00,SSE,151,2.0,9.0,15,0.00,,,0.00,,2013-06-10 06:42:00,
2013-06-09 23:52:00,67.0,18.0,-100.00,SSE,151,2.0,9.0,15,0.00,,,0.00,,2013-06-10 06:52:00,